Grant City, Missouri
Current Conditions -  °F | °C
As of 6:53 AM on Friday 19 Dec 2014 (Local Time) from KLWD Reporting Station
Haze Haze  
Wind Chill: 28°   Ceiling: 4200
Heat Index: 28°   Visibility: 6mi
Dew Point: 26°   Wind: 0mph
Humidity: 92%   Direction: NA
Pressure: 30.24"   Gusts: NA
Location:  40.49°N, 94.41°W
Report Text: KLWD 191253Z AUTO 00000KT 6SM BR SCT031 OVC042 M02/M03 A3024 RMK AO2 SNE38 SLP256 P0000 T10221033
Loading
Personal Weather Stations






























Interactive Weather Map New forecast layout! Learn more

10-Day Weather Forecast

Advertisements
Track Severe Weather on mobile